createdAt,value
2019-05-20T00:00:31.089Z,16.00
2019-05-20T00:02:03.239Z,16.00
2019-05-20T00:03:35.445Z,16.00
2019-05-20T00:05:07.527Z,16.00
2019-05-20T00:06:39.628Z,16.00
2019-05-20T00:08:11.901Z,16.00
2019-05-20T00:09:44.035Z,15.90
2019-05-20T00:11:16.102Z,15.90
2019-05-20T00:12:48.350Z,15.90
2019-05-20T00:14:20.487Z,15.90
2019-05-20T00:15:52.744Z,15.90
2019-05-20T00:17:24.998Z,15.90
2019-05-20T00:18:57.326Z,15.90
2019-05-20T00:20:29.579Z,15.80
2019-05-20T00:22:01.656Z,15.80
2019-05-20T00:23:33.884Z,15.80
2019-05-20T00:25:06.732Z,15.80
2019-05-20T00:26:38.990Z,15.80
2019-05-20T00:28:11.327Z,15.70
2019-05-20T00:29:43.623Z,15.70
2019-05-20T00:31:15.724Z,15.70
2019-05-20T00:32:47.968Z,15.70
2019-05-20T00:34:34.197Z,15.70
2019-05-20T00:35:54.211Z,15.60
2019-05-20T00:37:26.467Z,15.60
2019-05-20T00:39:16.914Z,15.60
2019-05-20T00:40:49.008Z,15.70
2019-05-20T00:42:21.326Z,15.60
2019-05-20T00:43:53.457Z,15.60
2019-05-20T00:45:25.662Z,15.60
2019-05-20T00:46:57.725Z,15.60
2019-05-20T00:48:29.837Z,15.60
2019-05-20T00:50:02.677Z,15.60
2019-05-20T00:51:35.014Z,15.50
2019-05-20T00:53:07.145Z,15.60
2019-05-20T00:54:39.412Z,15.50
2019-05-20T00:56:11.615Z,15.50
2019-05-20T00:57:43.896Z,15.50
2019-05-20T00:59:16.156Z,15.40
2019-05-20T01:00:48.433Z,15.40
2019-05-20T01:02:20.742Z,15.40
2019-05-20T01:03:52.877Z,15.40
2019-05-20T01:05:25.152Z,15.30
2019-05-20T01:06:57.405Z,15.40
2019-05-20T01:08:29.621Z,15.30
2019-05-20T01:10:01.869Z,15.30
2019-05-20T01:11:33.944Z,15.20
2019-05-20T01:13:06.209Z,15.20
2019-05-20T01:14:38.449Z,15.20
2019-05-20T01:16:10.586Z,15.20
2019-05-20T01:17:42.788Z,15.20
2019-05-20T01:19:14.949Z,15.20
2019-05-20T01:20:47.753Z,15.20
2019-05-20T01:22:19.988Z,15.20
2019-05-20T01:23:52.086Z,15.20
2019-05-20T01:25:24.486Z,15.10
2019-05-20T01:26:56.705Z,15.10
2019-05-20T01:28:28.841Z,15.10
2019-05-20T01:30:01.054Z,15.00
2019-05-20T01:31:33.289Z,15.00
2019-05-20T01:33:13.812Z,15.00
2019-05-20T01:34:39.586Z,15.00
2019-05-20T01:36:11.712Z,15.00
2019-05-20T01:37:43.820Z,15.00
2019-05-20T01:39:16.069Z,14.90
2019-05-20T01:40:48.326Z,14.90
2019-05-20T01:42:20.446Z,14.90
2019-05-20T01:43:52.643Z,14.90
2019-05-20T01:45:24.910Z,14.80
2019-05-20T01:46:57.000Z,14.80
2019-05-20T01:48:29.520Z,14.80
2019-05-20T01:50:01.715Z,14.80
2019-05-20T01:51:33.847Z,14.80
2019-05-20T01:53:06.109Z,14.80
2019-05-20T01:54:38.344Z,14.70
2019-05-20T01:56:10.508Z,14.70
2019-05-20T01:57:42.761Z,14.70
2019-05-20T01:59:15.023Z,14.70
2019-05-20T02:00:47.174Z,14.60
2019-05-20T02:02:19.569Z,14.60
2019-05-20T02:03:51.716Z,14.60
2019-05-20T02:05:24.043Z,14.60
2019-05-20T02:06:56.268Z,14.50
2019-05-20T02:08:28.557Z,14.60
2019-05-20T02:10:00.799Z,14.50
2019-05-20T02:11:32.952Z,14.50
2019-05-20T02:13:05.078Z,14.50
2019-05-20T02:14:43.122Z,14.50
2019-05-20T02:16:15.932Z,14.40
2019-05-20T02:17:48.087Z,14.40
2019-05-20T02:19:20.506Z,14.40
2019-05-20T02:20:52.695Z,14.40
2019-05-20T02:22:24.771Z,14.40
2019-05-20T02:23:56.884Z,14.40
2019-05-20T02:25:28.967Z,14.50
2019-05-20T02:27:01.054Z,14.50
2019-05-20T02:28:33.198Z,14.40
2019-05-20T02:30:05.549Z,14.40
2019-05-20T02:31:37.648Z,14.40
2019-05-20T02:33:09.893Z,14.40
2019-05-20T02:34:41.989Z,14.40
2019-05-20T02:36:14.101Z,14.30
2019-05-20T02:37:46.351Z,14.30
2019-05-20T02:39:18.434Z,14.30
2019-05-20T02:40:50.751Z,14.20
2019-05-20T02:42:22.893Z,14.20
2019-05-20T02:43:55.099Z,14.20
2019-05-20T02:45:27.230Z,14.20
2019-05-20T02:46:59.453Z,14.20
2019-05-20T02:48:31.556Z,14.10
2019-05-20T02:50:03.966Z,14.10
2019-05-20T02:51:36.246Z,14.10
2019-05-20T02:53:08.449Z,14.10
2019-05-20T02:54:40.521Z,14.00
2019-05-20T02:56:12.857Z,14.00
2019-05-20T02:57:45.008Z,14.00
2019-05-20T02:59:17.279Z,14.00
2019-05-20T03:00:49.482Z,13.90
2019-05-20T03:02:21.601Z,13.90
2019-05-20T03:04:09.830Z,13.80
2019-05-20T03:05:28.089Z,13.80
2019-05-20T03:07:00.339Z,13.80
2019-05-20T03:08:32.410Z,13.80
2019-05-20T03:10:04.809Z,13.80
2019-05-20T03:11:36.978Z,13.70
2019-05-20T03:13:09.095Z,13.70
2019-05-20T03:14:41.289Z,13.70
2019-05-20T03:16:15.735Z,13.70
2019-05-20T03:17:47.566Z,13.70
2019-05-20T03:19:19.717Z,13.70
2019-05-20T03:20:51.857Z,13.70
2019-05-20T03:22:24.095Z,13.70
2019-05-20T03:23:56.207Z,13.70
2019-05-20T03:25:28.468Z,13.70
2019-05-20T03:27:01.348Z,13.70
2019-05-20T03:28:33.507Z,13.80
2019-05-20T03:30:06.690Z,13.70
2019-05-20T03:31:38.974Z,13.70
2019-05-20T03:33:11.205Z,13.70
2019-05-20T03:34:53.735Z,13.70
2019-05-20T03:36:17.469Z,13.70
2019-05-20T03:37:49.640Z,13.70
2019-05-20T03:39:21.751Z,13.60
2019-05-20T03:40:53.882Z,13.60
2019-05-20T03:42:25.983Z,13.60
2019-05-20T03:43:58.220Z,13.60
2019-05-20T03:45:30.491Z,13.60
2019-05-20T03:47:02.663Z,13.60
2019-05-20T03:48:34.893Z,13.60
2019-05-20T03:50:07.297Z,13.60
2019-05-20T03:51:39.655Z,13.60
2019-05-20T03:53:11.757Z,13.60
2019-05-20T03:54:44.010Z,13.60
2019-05-20T03:56:16.285Z,13.60
2019-05-20T03:57:48.478Z,13.60
2019-05-20T03:59:20.777Z,13.60
2019-05-20T04:00:53.020Z,13.60
2019-05-20T04:02:25.256Z,13.60
2019-05-20T04:03:57.485Z,13.60
2019-05-20T04:05:29.747Z,13.60
2019-05-20T04:07:01.836Z,13.60
2019-05-20T04:08:34.172Z,13.60
2019-05-20T04:10:06.395Z,13.60
2019-05-20T04:11:38.537Z,13.60
2019-05-20T04:13:10.649Z,13.60
2019-05-20T04:14:42.894Z,13.60
2019-05-20T04:16:15.187Z,13.60
2019-05-20T04:17:47.273Z,13.60
2019-05-20T04:19:19.420Z,13.60
2019-05-20T04:20:51.561Z,13.70
2019-05-20T04:22:23.732Z,13.70
2019-05-20T04:24:00.610Z,13.70
2019-05-20T04:25:30.680Z,13.70
2019-05-20T04:27:02.823Z,13.70
2019-05-20T04:28:35.017Z,13.70
2019-05-20T04:30:07.796Z,13.80
2019-05-20T04:31:40.099Z,13.80
2019-05-20T04:33:12.203Z,13.80
2019-05-20T04:34:44.456Z,13.80
2019-05-20T04:36:16.721Z,13.80
2019-05-20T04:37:48.964Z,13.80
2019-05-20T04:39:21.240Z,13.80
2019-05-20T04:40:53.343Z,13.80
2019-05-20T04:42:25.478Z,13.80
2019-05-20T04:43:58.000Z,13.90
2019-05-20T04:45:30.090Z,13.90
2019-05-20T04:47:02.317Z,13.90
2019-05-20T04:48:34.592Z,14.00
2019-05-20T04:50:07.032Z,14.00
2019-05-20T04:51:39.152Z,14.10
2019-05-20T04:53:11.403Z,14.10
2019-05-20T04:54:43.642Z,14.10
2019-05-20T04:56:15.711Z,14.10
2019-05-20T04:57:47.845Z,14.20
2019-05-20T04:59:19.956Z,14.20
2019-05-20T05:00:53.709Z,14.30
2019-05-20T05:02:25.934Z,14.30
2019-05-20T05:03:58.173Z,14.30
2019-05-20T05:05:37.722Z,14.40
2019-05-20T05:07:04.454Z,14.40
2019-05-20T05:08:36.595Z,14.40
2019-05-20T05:10:09.539Z,14.50
2019-05-20T05:11:41.643Z,14.50
2019-05-20T05:13:13.892Z,14.50
2019-05-20T05:14:46.165Z,14.60
2019-05-20T05:16:18.268Z,14.60
2019-05-20T05:17:50.349Z,14.70
2019-05-20T05:19:22.619Z,14.70
2019-05-20T05:20:54.852Z,14.80
2019-05-20T05:22:27.286Z,14.80
2019-05-20T05:23:59.720Z,14.80
2019-05-20T05:25:32.161Z,14.90
2019-05-20T05:27:04.289Z,15.00
2019-05-20T05:28:36.430Z,15.00
2019-05-20T05:30:08.771Z,15.00
2019-05-20T05:31:40.941Z,15.00
2019-05-20T05:33:13.051Z,15.10
2019-05-20T05:34:45.154Z,15.10
2019-05-20T05:36:17.228Z,15.20
2019-05-20T05:37:49.519Z,15.20
2019-05-20T05:39:21.890Z,15.30
2019-05-20T05:40:54.105Z,15.30
2019-05-20T05:42:26.365Z,15.40
2019-05-20T05:43:58.513Z,15.40
2019-05-20T05:45:31.710Z,15.40
2019-05-20T05:47:03.843Z,15.50
2019-05-20T05:48:35.962Z,15.60
2019-05-20T05:50:08.479Z,15.60
2019-05-20T05:51:40.585Z,15.70
2019-05-20T05:53:12.816Z,15.80
2019-05-20T05:54:44.914Z,15.90
2019-05-20T05:56:17.009Z,15.90
2019-05-20T05:57:49.077Z,16.00
2019-05-20T05:59:21.195Z,16.00
2019-05-20T06:00:53.452Z,16.10
2019-05-20T06:02:25.576Z,16.20
2019-05-20T06:03:57.673Z,16.20
2019-05-20T06:05:31.796Z,16.30
2019-05-20T06:07:03.940Z,16.40
2019-05-20T06:08:36.203Z,16.40
2019-05-20T06:10:08.575Z,16.40
2019-05-20T06:11:40.947Z,16.50
2019-05-20T06:13:13.075Z,16.50
2019-05-20T06:14:45.188Z,16.60
2019-05-20T06:16:34.980Z,16.70
2019-05-20T06:17:51.483Z,16.70
2019-05-20T06:19:23.600Z,16.70
2019-05-20T06:20:55.856Z,16.80
2019-05-20T06:22:28.010Z,16.80
2019-05-20T06:24:00.236Z,16.80
2019-05-20T06:25:32.513Z,16.90
2019-05-20T06:27:04.642Z,17.00
2019-05-20T06:28:36.931Z,17.00
2019-05-20T06:30:09.714Z,17.10
2019-05-20T06:31:41.825Z,17.10
2019-05-20T06:33:14.086Z,17.20
2019-05-20T06:34:46.190Z,17.20
2019-05-20T06:36:26.471Z,17.20
2019-05-20T06:37:54.829Z,17.30
2019-05-20T06:40:12.608Z,17.30
2019-05-20T06:41:44.741Z,17.40
2019-05-20T06:43:16.844Z,17.40
2019-05-20T06:44:53.064Z,17.40
2019-05-20T06:46:23.271Z,17.40
2019-05-20T06:47:55.494Z,17.40
2019-05-20T06:49:27.640Z,17.30
2019-05-20T06:50:59.952Z,17.30
2019-05-20T06:52:35.882Z,17.30
2019-05-20T06:54:06.285Z,17.30
2019-05-20T06:55:38.566Z,17.30
2019-05-20T06:57:10.991Z,17.20
2019-05-20T06:58:43.412Z,17.20
2019-05-20T07:00:24.946Z,17.20
2019-05-20T07:01:57.205Z,17.20
2019-05-20T07:03:29.350Z,17.20
2019-05-20T07:05:01.629Z,17.20
2019-05-20T07:06:46.037Z,17.20
2019-05-20T07:08:07.856Z,17.20
2019-05-20T07:09:40.076Z,17.20
2019-05-20T07:11:12.292Z,17.20
2019-05-20T07:12:44.528Z,17.20
2019-05-20T07:14:16.777Z,17.20
2019-05-20T07:15:48.920Z,17.20
2019-05-20T07:17:21.143Z,17.20
2019-05-20T07:18:53.260Z,17.20
2019-05-20T07:20:25.474Z,17.20
2019-05-20T07:21:57.717Z,17.30
2019-05-20T07:23:29.955Z,17.30
2019-05-20T07:25:02.491Z,17.30
2019-05-20T07:26:34.972Z,17.30
2019-05-20T07:28:07.192Z,17.40
2019-05-20T07:29:39.317Z,17.40
2019-05-20T07:31:11.561Z,17.40
2019-05-20T07:32:43.847Z,17.50
2019-05-20T07:34:16.086Z,17.50
2019-05-20T07:35:48.491Z,17.60
2019-05-20T07:37:20.602Z,17.60
2019-05-20T07:38:52.841Z,17.60
2019-05-20T07:40:29.957Z,17.70
2019-05-20T07:42:02.210Z,17.70
2019-05-20T07:43:34.305Z,17.70
2019-05-20T07:45:06.914Z,17.70
2019-05-20T07:46:39.147Z,17.80
2019-05-20T07:48:11.865Z,17.70
2019-05-20T07:49:44.692Z,17.70
2019-05-20T07:51:17.936Z,17.70
2019-05-20T07:52:50.084Z,17.70
2019-05-20T07:54:23.149Z,17.70
2019-05-20T07:56:02.795Z,17.70
2019-05-20T07:57:38.692Z,17.70
2019-05-20T07:59:12.795Z,17.70
2019-05-20T08:00:45.177Z,17.60
2019-05-20T08:02:17.651Z,17.60
2019-05-20T08:03:49.763Z,17.70
2019-05-20T08:05:21.969Z,17.80
2019-05-20T08:06:54.066Z,17.70
2019-05-20T08:08:26.448Z,17.70
2019-05-20T08:09:58.594Z,17.80
2019-05-20T08:11:30.858Z,17.80
2019-05-20T08:13:03.087Z,17.90
2019-05-20T08:14:35.361Z,18.10
2019-05-20T08:16:07.636Z,18.20
2019-05-20T08:17:39.755Z,18.40
2019-05-20T08:19:11.947Z,18.60
2019-05-20T08:20:44.089Z,18.70
2019-05-20T08:22:16.286Z,18.70
2019-05-20T08:23:50.311Z,18.90
2019-05-20T08:25:22.689Z,18.90
2019-05-20T08:26:54.838Z,19.00
2019-05-20T08:28:27.125Z,19.10
2019-05-20T08:29:59.396Z,19.10
2019-05-20T08:31:31.638Z,19.20
2019-05-20T08:33:04.494Z,19.40
2019-05-20T08:34:38.027Z,19.40
2019-05-20T08:36:10.909Z,19.40
2019-05-20T08:37:45.820Z,19.40
2019-05-20T08:39:17.119Z,19.30
2019-05-20T08:40:49.234Z,19.30
2019-05-20T08:42:21.322Z,19.20
2019-05-20T08:43:53.627Z,19.10
2019-05-20T08:45:25.924Z,19.00
2019-05-20T08:46:58.098Z,19.00
2019-05-20T08:48:30.267Z,19.10
2019-05-20T08:50:06.701Z,19.10
2019-05-20T08:51:37.513Z,19.20
2019-05-20T08:53:09.744Z,19.50
2019-05-20T08:54:42.014Z,20.00
2019-05-20T08:56:14.179Z,20.60
2019-05-20T08:57:46.429Z,21.20
2019-05-20T08:59:18.684Z,21.50
2019-05-20T09:00:50.913Z,21.90
2019-05-20T09:02:23.245Z,22.10
2019-05-20T09:03:55.410Z,22.30
2019-05-20T09:05:28.565Z,22.40
2019-05-20T09:07:01.205Z,22.40
2019-05-20T09:08:33.478Z,22.30
2019-05-20T09:10:05.978Z,22.20
2019-05-20T09:11:38.260Z,22.10
2019-05-20T09:13:10.526Z,21.90
2019-05-20T09:14:42.695Z,21.80
2019-05-20T09:16:14.965Z,21.60
2019-05-20T09:17:47.053Z,21.60
2019-05-20T09:19:19.340Z,21.50
2019-05-20T09:20:51.607Z,21.50
2019-05-20T09:22:23.823Z,21.60
2019-05-20T09:23:56.138Z,21.60
2019-05-20T09:25:29.815Z,21.70
2019-05-20T09:27:02.105Z,21.80
2019-05-20T09:28:34.340Z,22.00
2019-05-20T09:30:07.534Z,22.20
2019-05-20T09:31:39.896Z,22.50
2019-05-20T09:33:12.063Z,22.90
2019-05-20T09:34:44.507Z,23.20
2019-05-20T09:36:16.688Z,23.40
2019-05-20T09:37:48.943Z,23.50
2019-05-20T09:39:21.183Z,23.40
2019-05-20T09:40:53.439Z,23.20
2019-05-20T09:42:25.841Z,23.00
2019-05-20T09:43:57.980Z,22.70
2019-05-20T09:45:30.081Z,22.60
2019-05-20T09:47:02.355Z,22.60
2019-05-20T09:48:34.570Z,22.70
2019-05-20T09:50:06.971Z,22.90
2019-05-20T09:51:39.174Z,23.10
2019-05-20T09:53:11.315Z,23.20
2019-05-20T09:54:45.683Z,23.30
2019-05-20T09:56:17.840Z,23.30
2019-05-20T09:57:50.102Z,23.30
2019-05-20T09:59:22.200Z,23.30
2019-05-20T10:00:54.466Z,23.30
2019-05-20T10:02:35.785Z,23.10
2019-05-20T10:04:00.762Z,23.00
2019-05-20T10:05:33.024Z,22.80
2019-05-20T10:07:05.111Z,22.60
2019-05-20T10:08:44.223Z,22.40
2019-05-20T10:10:11.836Z,22.30
2019-05-20T10:11:44.057Z,22.10
2019-05-20T10:13:16.300Z,21.90
2019-05-20T10:14:48.393Z,21.70
2019-05-20T10:16:20.649Z,21.60
2019-05-20T10:17:52.902Z,21.50
2019-05-20T10:19:25.606Z,21.40
2019-05-20T10:20:57.680Z,21.30
2019-05-20T10:22:29.909Z,21.10
2019-05-20T10:24:02.174Z,21.10
2019-05-20T10:25:34.349Z,20.90
2019-05-20T10:27:06.658Z,20.80
2019-05-20T10:28:42.262Z,20.70
2019-05-20T10:30:12.933Z,20.60
2019-05-20T10:31:45.081Z,20.40
2019-05-20T10:33:17.328Z,20.30
2019-05-20T10:34:49.435Z,20.10
2019-05-20T10:36:21.581Z,20.00
2019-05-20T10:37:53.731Z,19.90
2019-05-20T10:39:25.967Z,19.80
2019-05-20T10:40:58.098Z,19.70
2019-05-20T10:42:30.371Z,19.60
2019-05-20T10:44:02.806Z,19.50
2019-05-20T10:45:34.908Z,19.50
2019-05-20T10:47:07.091Z,19.50
2019-05-20T10:48:39.215Z,19.50
2019-05-20T10:50:11.648Z,19.40
2019-05-20T10:51:43.790Z,19.40
2019-05-20T10:53:15.970Z,19.40
2019-05-20T10:54:48.379Z,19.50
2019-05-20T10:56:20.529Z,19.40
2019-05-20T10:57:52.719Z,19.40
2019-05-20T10:59:24.833Z,19.40
2019-05-20T11:01:02.652Z,19.30
2019-05-20T11:02:31.437Z,19.30
2019-05-20T11:04:03.621Z,19.30
2019-05-20T11:05:35.832Z,19.30
2019-05-20T11:07:08.014Z,19.30
2019-05-20T11:08:40.158Z,19.30
2019-05-20T11:10:12.349Z,19.30
2019-05-20T11:11:44.507Z,19.30
2019-05-20T11:13:16.608Z,19.30
2019-05-20T11:14:48.716Z,19.30
2019-05-20T11:16:20.852Z,19.30
2019-05-20T11:17:53.132Z,19.30
2019-05-20T11:19:25.219Z,19.30
2019-05-20T11:20:57.350Z,19.30
2019-05-20T11:22:29.430Z,19.30
2019-05-20T11:24:01.617Z,19.30
2019-05-20T11:25:33.895Z,19.30
2019-05-20T11:27:06.151Z,19.20
2019-05-20T11:28:38.284Z,19.20
2019-05-20T11:30:11.707Z,19.10
2019-05-20T11:31:43.874Z,19.10
2019-05-20T11:33:16.204Z,19.10
2019-05-20T11:34:48.481Z,19.00
2019-05-20T11:36:20.616Z,19.10
2019-05-20T11:37:52.867Z,19.00
2019-05-20T11:39:33.472Z,19.10
2019-05-20T11:40:59.274Z,19.10
2019-05-20T11:42:31.591Z,19.10
2019-05-20T11:44:03.934Z,19.20
2019-05-20T11:45:36.009Z,19.30
2019-05-20T11:47:08.280Z,19.30
2019-05-20T11:48:40.535Z,19.30
2019-05-20T11:50:14.267Z,19.30
2019-05-20T11:51:46.473Z,19.30
2019-05-20T11:53:18.836Z,19.30
2019-05-20T11:54:51.094Z,19.30
2019-05-20T11:56:23.309Z,19.30
2019-05-20T11:57:55.531Z,19.40
2019-05-20T11:59:27.624Z,19.40
2019-05-20T12:00:59.876Z,19.40
2019-05-20T12:02:32.224Z,19.30
2019-05-20T12:04:04.585Z,19.30
2019-05-20T12:05:36.687Z,19.30
2019-05-20T12:07:08.946Z,19.20
2019-05-20T12:08:41.068Z,19.20
2019-05-20T12:10:13.277Z,19.20
2019-05-20T12:11:45.413Z,19.20
2019-05-20T12:13:17.684Z,19.30
2019-05-20T12:14:49.895Z,19.40
2019-05-20T12:16:22.163Z,19.40
2019-05-20T12:17:54.364Z,19.50
2019-05-20T12:19:26.483Z,19.50
2019-05-20T12:20:58.742Z,19.50
2019-05-20T12:22:30.889Z,19.50
2019-05-20T12:24:03.044Z,19.60
2019-05-20T12:25:35.242Z,19.60
2019-05-20T12:27:07.366Z,19.70
2019-05-20T12:28:39.620Z,19.70
2019-05-20T12:30:12.082Z,19.70
2019-05-20T12:31:44.195Z,19.70
2019-05-20T12:33:19.116Z,19.70
2019-05-20T12:34:50.374Z,19.70
2019-05-20T12:36:22.435Z,19.70
2019-05-20T12:37:54.598Z,19.70
2019-05-20T12:39:26.744Z,19.70
2019-05-20T12:40:59.227Z,19.70
2019-05-20T12:42:31.527Z,19.70
2019-05-20T12:44:11.998Z,19.60
2019-05-20T12:45:37.998Z,19.60
2019-05-20T12:47:10.128Z,19.60
2019-05-20T12:48:42.211Z,19.60
2019-05-20T12:50:14.440Z,19.60
2019-05-20T12:51:46.709Z,19.50
2019-05-20T12:53:18.962Z,19.50
2019-05-20T12:55:05.953Z,19.50
2019-05-20T12:56:25.451Z,19.40
2019-05-20T12:57:57.559Z,19.40
2019-05-20T12:59:29.691Z,19.30
2019-05-20T13:01:01.986Z,19.30
2019-05-20T13:02:34.154Z,19.30
2019-05-20T13:04:06.294Z,19.20
2019-05-20T13:05:38.615Z,19.10
2019-05-20T13:07:10.967Z,19.00
2019-05-20T13:08:43.219Z,19.00
2019-05-20T13:10:28.871Z,18.90
2019-05-20T13:11:50.596Z,18.90
2019-05-20T13:13:22.827Z,18.80
2019-05-20T13:14:54.931Z,18.80
2019-05-20T13:16:27.045Z,18.80
2019-05-20T13:17:59.192Z,18.80
2019-05-20T13:19:31.464Z,18.70
2019-05-20T13:21:04.013Z,18.70
2019-05-20T13:22:36.356Z,18.70
2019-05-20T13:24:08.479Z,18.70
2019-05-20T13:25:40.547Z,18.70
2019-05-20T13:27:12.844Z,18.80
2019-05-20T13:28:45.099Z,18.80
2019-05-20T13:30:19.230Z,18.80
2019-05-20T13:31:51.463Z,18.80
2019-05-20T13:33:23.599Z,18.80
2019-05-20T13:34:55.808Z,18.80
2019-05-20T13:36:27.934Z,18.90
2019-05-20T13:38:00.201Z,18.90
2019-05-20T13:39:32.505Z,18.90
2019-05-20T13:41:04.874Z,19.00
2019-05-20T13:42:37.074Z,19.00
2019-05-20T13:44:09.360Z,19.00
2019-05-20T13:45:41.478Z,19.00
2019-05-20T13:47:13.766Z,19.00
2019-05-20T13:48:45.994Z,19.00
2019-05-20T13:50:18.449Z,19.00
2019-05-20T13:51:50.596Z,19.00
2019-05-20T13:53:22.778Z,19.10
2019-05-20T13:54:55.010Z,19.10
2019-05-20T13:56:27.107Z,19.10
2019-05-20T13:57:59.376Z,19.10
2019-05-20T13:59:31.616Z,19.10
2019-05-20T14:01:03.886Z,19.10
2019-05-20T14:02:36.019Z,19.10
2019-05-20T14:04:08.242Z,19.10
2019-05-20T14:05:40.534Z,19.10
2019-05-20T14:07:12.751Z,19.10
2019-05-20T14:08:44.838Z,19.10
2019-05-20T14:10:17.088Z,19.10
2019-05-20T14:11:49.291Z,19.10
2019-05-20T14:13:21.421Z,19.10
2019-05-20T14:14:53.505Z,19.20
2019-05-20T14:16:25.795Z,19.20
2019-05-20T14:17:57.964Z,19.20
2019-05-20T14:19:30.231Z,19.20
2019-05-20T14:21:02.312Z,19.20
2019-05-20T14:22:34.679Z,19.10
2019-05-20T14:24:06.989Z,19.10
2019-05-20T14:25:39.100Z,19.10
2019-05-20T14:27:11.227Z,19.00
2019-05-20T14:28:43.622Z,19.00
2019-05-20T14:30:15.947Z,18.90
2019-05-20T14:31:48.235Z,18.90
2019-05-20T14:33:20.386Z,18.80
2019-05-20T14:34:52.449Z,18.80
2019-05-20T14:36:38.453Z,18.80
2019-05-20T14:37:58.759Z,18.80
2019-05-20T14:39:30.854Z,18.80
2019-05-20T14:41:20.117Z,18.70
2019-05-20T14:42:37.045Z,18.70
2019-05-20T14:44:09.158Z,18.70
2019-05-20T14:45:41.298Z,18.60
2019-05-20T14:47:13.589Z,18.60
2019-05-20T14:48:45.788Z,18.60
2019-05-20T14:50:18.017Z,18.70
2019-05-20T14:51:50.280Z,18.70
2019-05-20T14:53:22.567Z,18.70
2019-05-20T14:54:54.882Z,18.70
2019-05-20T14:56:27.089Z,18.70
2019-05-20T14:57:59.389Z,18.70
2019-05-20T14:59:31.613Z,18.70
2019-05-20T15:01:03.735Z,18.70
2019-05-20T15:02:35.845Z,18.70
2019-05-20T15:04:07.939Z,18.70
2019-05-20T15:05:40.434Z,18.70
2019-05-20T15:07:12.794Z,18.70
2019-05-20T15:08:44.914Z,18.70
2019-05-20T15:10:17.410Z,18.70
2019-05-20T15:11:49.656Z,18.70
2019-05-20T15:13:21.889Z,18.70
2019-05-20T15:14:54.171Z,18.70
2019-05-20T15:16:26.508Z,18.60
2019-05-20T15:17:58.610Z,18.60
2019-05-20T15:19:30.742Z,18.60
2019-05-20T15:21:02.979Z,18.50
2019-05-20T15:22:35.109Z,18.50
2019-05-20T15:24:07.224Z,18.50
2019-05-20T15:25:39.458Z,18.50
2019-05-20T15:27:11.561Z,18.50
2019-05-20T15:28:43.767Z,18.40
2019-05-20T15:30:16.304Z,18.40
2019-05-20T15:31:48.674Z,18.40
2019-05-20T15:33:20.888Z,18.40
2019-05-20T15:34:53.158Z,18.40
2019-05-20T15:36:25.418Z,18.40
2019-05-20T15:37:57.662Z,18.40
2019-05-20T15:39:29.746Z,18.40
2019-05-20T15:41:01.917Z,18.30
2019-05-20T15:42:34.290Z,18.30
2019-05-20T15:44:06.543Z,18.30
2019-05-20T15:45:38.653Z,18.20
2019-05-20T15:47:10.961Z,18.20
2019-05-20T15:48:43.193Z,18.20
2019-05-20T15:50:15.500Z,18.20
2019-05-20T15:51:47.607Z,18.20
2019-05-20T15:53:19.756Z,18.20
2019-05-20T15:54:51.863Z,18.10
2019-05-20T15:56:23.963Z,18.10
2019-05-20T15:57:56.266Z,18.10
2019-05-20T15:59:44.443Z,18.10
2019-05-20T16:01:02.520Z,18.10
2019-05-20T16:02:34.744Z,18.10
2019-05-20T16:04:07.095Z,18.00
2019-05-20T16:05:39.338Z,18.10
2019-05-20T16:07:11.468Z,18.00
2019-05-20T16:08:43.624Z,18.00
2019-05-20T16:10:15.686Z,18.00
2019-05-20T16:11:47.976Z,18.00
2019-05-20T16:13:20.242Z,17.90
2019-05-20T16:14:52.501Z,17.90
2019-05-20T16:16:24.624Z,17.90
2019-05-20T16:17:56.731Z,17.80
2019-05-20T16:19:29.016Z,17.80
2019-05-20T16:21:01.268Z,17.80
2019-05-20T16:22:33.347Z,17.70
2019-05-20T16:24:05.546Z,17.70
2019-05-20T16:25:37.812Z,17.70
2019-05-20T16:27:10.040Z,17.60
2019-05-20T16:28:42.134Z,17.60
2019-05-20T16:30:14.486Z,17.60
2019-05-20T16:31:46.630Z,17.60
2019-05-20T16:33:18.902Z,17.60
2019-05-20T16:34:51.141Z,17.50
2019-05-20T16:36:23.236Z,17.40
2019-05-20T16:37:55.468Z,17.40
2019-05-20T16:39:30.777Z,17.40
2019-05-20T16:41:01.733Z,17.40
2019-05-20T16:42:33.853Z,17.40
2019-05-20T16:44:06.112Z,17.40
2019-05-20T16:45:38.235Z,17.40
2019-05-20T16:47:10.386Z,17.30
2019-05-20T16:48:42.468Z,17.20
2019-05-20T16:50:14.890Z,17.20
2019-05-20T16:51:47.128Z,17.20
2019-05-20T16:53:19.280Z,17.10
2019-05-20T16:54:51.405Z,17.10
2019-05-20T16:56:23.551Z,17.10
2019-05-20T16:57:55.629Z,17.00
2019-05-20T16:59:27.900Z,17.00
2019-05-20T17:01:00.154Z,17.00
2019-05-20T17:02:32.426Z,17.00
2019-05-20T17:04:04.654Z,17.00
2019-05-20T17:05:36.797Z,17.00
2019-05-20T17:07:09.150Z,17.00
2019-05-20T17:08:41.378Z,17.00
2019-05-20T17:10:13.885Z,16.90
2019-05-20T17:11:46.068Z,16.90
2019-05-20T17:13:18.421Z,16.90
2019-05-20T17:14:50.675Z,16.80
2019-05-20T17:16:22.836Z,16.90
2019-05-20T17:17:54.973Z,16.80
2019-05-20T17:19:27.099Z,16.80
2019-05-20T17:20:59.487Z,16.70
2019-05-20T17:22:31.853Z,16.70
2019-05-20T17:24:04.169Z,16.70
2019-05-20T17:25:36.483Z,16.70
2019-05-20T17:27:08.760Z,16.60
2019-05-20T17:28:40.919Z,16.60
2019-05-20T17:30:13.566Z,16.60
2019-05-20T17:31:46.003Z,16.70
2019-05-20T17:33:18.215Z,16.70
2019-05-20T17:34:50.383Z,16.60
2019-05-20T17:36:22.537Z,16.70
2019-05-20T17:37:55.438Z,16.70
2019-05-20T17:39:27.967Z,16.70
2019-05-20T17:41:00.463Z,16.60
2019-05-20T17:42:32.943Z,16.60
2019-05-20T17:44:05.054Z,16.70
2019-05-20T17:45:37.322Z,16.70
2019-05-20T17:47:09.542Z,16.70
2019-05-20T17:48:41.889Z,16.60
2019-05-20T17:50:14.819Z,16.70
2019-05-20T17:51:47.125Z,16.70
2019-05-20T17:53:19.397Z,16.70
2019-05-20T17:54:51.534Z,16.70
2019-05-20T17:56:23.801Z,16.60
2019-05-20T17:57:56.042Z,16.70
2019-05-20T17:59:28.299Z,16.70
2019-05-20T18:01:13.866Z,16.70
2019-05-20T18:02:34.603Z,16.70
2019-05-20T18:04:06.949Z,16.70
2019-05-20T18:05:39.113Z,16.80
2019-05-20T18:07:11.436Z,16.70
2019-05-20T18:08:46.781Z,16.70
2019-05-20T18:10:21.829Z,16.80
2019-05-20T18:11:54.072Z,16.80
2019-05-20T18:13:26.332Z,16.70
2019-05-20T18:15:00.494Z,16.70
2019-05-20T18:16:32.681Z,16.70
2019-05-20T18:18:04.959Z,16.70
2019-05-20T18:19:37.073Z,16.70
2019-05-20T18:21:09.292Z,16.60
2019-05-20T18:22:41.565Z,16.60
2019-05-20T18:24:13.842Z,16.60
2019-05-20T18:25:46.136Z,16.60
2019-05-20T18:27:18.380Z,16.60
2019-05-20T18:28:50.736Z,16.60
2019-05-20T18:30:22.836Z,16.60
2019-05-20T18:31:55.108Z,16.60
2019-05-20T18:33:27.426Z,16.50
2019-05-20T18:34:59.738Z,16.50
2019-05-20T18:36:31.992Z,16.60
2019-05-20T18:38:04.324Z,16.60
2019-05-20T18:39:36.508Z,16.50
2019-05-20T18:41:08.814Z,16.50
2019-05-20T18:42:41.043Z,16.50
2019-05-20T18:44:13.481Z,16.50
2019-05-20T18:45:45.881Z,16.50
2019-05-20T18:47:18.156Z,16.50
2019-05-20T18:48:50.285Z,16.50
2019-05-20T18:50:22.550Z,16.40
2019-05-20T18:51:54.663Z,16.40
2019-05-20T18:53:26.940Z,16.40
2019-05-20T18:54:59.219Z,16.40
2019-05-20T18:56:31.479Z,16.40
2019-05-20T18:58:03.777Z,16.30
2019-05-20T18:59:35.903Z,16.30
2019-05-20T19:01:08.196Z,16.30
2019-05-20T19:02:40.411Z,16.30
2019-05-20T19:04:12.652Z,16.30
2019-05-20T19:05:44.909Z,16.30
2019-05-20T19:07:17.116Z,16.30
2019-05-20T19:08:49.321Z,16.30
2019-05-20T19:10:21.625Z,16.30
2019-05-20T19:11:53.808Z,16.30
2019-05-20T19:13:26.102Z,16.30
2019-05-20T19:14:58.440Z,16.30
2019-05-20T19:16:30.660Z,16.30
2019-05-20T19:18:02.883Z,16.30
2019-05-20T19:19:35.240Z,16.30
2019-05-20T19:21:07.387Z,16.30
2019-05-20T19:22:39.542Z,16.30
2019-05-20T19:24:11.713Z,16.30
2019-05-20T19:25:44.143Z,16.20
2019-05-20T19:27:16.451Z,16.20
2019-05-20T19:28:48.714Z,16.20
2019-05-20T19:30:21.134Z,16.20
2019-05-20T19:32:01.567Z,16.20
2019-05-20T19:33:27.495Z,16.20
2019-05-20T19:34:59.792Z,16.20
2019-05-20T19:36:32.028Z,16.20
2019-05-20T19:38:04.199Z,16.10
2019-05-20T19:39:36.470Z,16.10
2019-05-20T19:41:08.682Z,16.10
2019-05-20T19:42:40.974Z,16.10
2019-05-20T19:44:13.535Z,16.10
2019-05-20T19:45:46.014Z,16.10
2019-05-20T19:47:18.287Z,16.10
2019-05-20T19:48:50.576Z,16.10
2019-05-20T19:50:22.689Z,16.10